Puget Island, Washington
Current Conditions -  °F | °C
As of 6:15 PM on Saturday 25 Oct 2014 (Local Time) from KKLS Reporting Station
Overcast Overcast  
Wind Chill: 57°   Ceiling: 7000
Heat Index: 57°   Visibility: 10mi
Dew Point: 50°   Wind: 7mph
Humidity: 77%   Direction: 240°WSW
Pressure: 29.55"   Gusts: 30mph
Location:  46.2689°N, 123.296°W
Report Text: KKLS 260115Z AUTO 24006G26KT 10SM FEW040 SCT060 OVC070 14/10 A2955 RMK AO1
Loading
Personal Weather Stations






























Interactive Weather Map
Tropical Storm Tracking
New forecast layout! Learn more

10-Day Weather Forecast

Advertisements
Track Severe Weather on mobile